Latest Conditions
At L.F.Wade Int. Airport
Recorded at 9:55 am
Showers
Temp.: 
23°C/74°F
Humidity: 
83%
Wind: 
W 23KT
or 26mph
UV Index: 
1
Island Observations
Observations
Wednesday, December 07, 2016

Observations are in local time and taken at least once an hour, or upon the start and end of specified events such as showers and thunderstorms.

Time Sky / Weather Wind Speed/Gusts Temp. R.H. Pressure
     knots (mph)  °C (°F)  %  mb / "Hg
 09:55 Mostly Cloudy Showers W 23/0 (26/0) 23(74) 83 1012 / 29.88
 08:55 Overcast  W 24/0 (28/0) 23(73) 83 1012 / 29.88
 07:55 Overcast  WSW 23/0 (26/0) 22(72) 83 1012 / 29.87
 07:32 Overcast Showers W 23/0 (26/0) 22(72) 84 1011 / 29.86
 07:07 Overcast Showers WSW 24/0 (28/0) 23(73) 83 1011 / 29.86
 06:55 Overcast Showers WSW 23/0 (26/0) 22(72) 83 1011 / 29.86
 06:29 Mostly Cloudy Showers WSW 25/0 (29/0) 22(72) 83 1011 / 29.85
 06:21 Mostly Cloudy Showers WSW 22/0 (25/0) 22(72) 82 1011 / 29.85
 05:55 Mostly Cloudy  WSW 23/0 (26/0) 22(72) 82 1010 / 29.84
 04:55 Overcast  WSW 22/0 (25/0) 22(72) 82 1011 / 29.86
 03:55 Overcast Showers WSW 20/0 (23/0) 22(72) 82 1011 / 29.85
 02:55 Overcast  WSW 19/0 (22/0) 22(71) 85 1012 / 29.87
 01:55 Overcast  WSW 18/0 (21/0) 22(71) 86 1012 / 29.89
 00:55 Overcast Showers WSW 12/0 (14/0) 21(69) 92 1013 / 29.92
 00:24 Overcast  SW 10/0 (12/0) 20(69) 92 1014 / 29.93
 23:55 Overcast Showers SW 9/0 (10/0) 20(68) 93 1014 / 29.95
 23:32 Overcast  SSW 7/0 (8/0) 20(67) 93 1014 / 29.95
 22:55 Overcast  Calm 19(67) 93 1015 / 29.98
 21:55 Overcast Showers WSW 3/0 (3/0) 19(67) 93 1016 / 29.99
 21:44 Overcast Showers WSW 2/0 (2/0) 19(67) 93 1016 / 29.99
 21:04 Overcast Drizzle W 3/0 (3/0) 19(67) 93 1016 / 29.99
 20:55 Overcast Showers Calm 19(67) 93 1016 / 29.99
 19:55 Overcast Drizzle W 3/0 (3/0) 19(67) 92 1016 / 30.00
 19:18 Overcast Drizzle WNW 3/0 (3/0) 20(67) 91 1016 / 30.00
 18:55 Overcast Showers WNW 3/0 (3/0) 20(67) 91 1016 / 30.01
 18:40 Overcast Showers NW 4/0 (5/0) 20(68) 91 1016 / 30.01
 17:55 Overcast Showers NW 4/0 (5/0) 20(67) 91 1016 / 30.00
 16:55 Mostly Cloudy Showers NNW 6/0 (7/0) 20(67) 92 1016 / 29.99
 16:18 Mostly Cloudy Showers NNW 7/0 (8/0) 19(67) 93 1015 / 29.98
 16:06 Mostly Cloudy Rain NNW 6/0 (7/0) 19(67) 93 1015 / 29.98
 15:55 Overcast Drizzle NNW 9/0 (10/0) 19(66) 92 1015 / 29.98
 14:55 Overcast Drizzle NNW 9/0 (10/0) 20(68) 92 1015 / 29.97
 14:39 Overcast Drizzle NW 8/0 (9/0) 20(67) 92 1015 / 29.97
 14:04 Overcast Drizzle NW 11/0 (13/0) 20(67) 91 1015 / 29.98
 13:55 Overcast Drizzle NNW 12/0 (14/0) 20(68) 90 1015 / 29.97
 13:35 Overcast Drizzle NNW 14/0 (16/0) 20(67) 90 1015 / 29.98
 13:28 Overcast Drizzle NNW 14/0 (16/0) 20(68) 89 1015 / 29.98
 13:21 Overcast Rain NNW 16/0 (18/0) 20(68) 89 1015 / 29.97
 13:06 Overcast Rain W 22/32 (25/37) 21(70) 86 1015 / 29.97
 13:02 Overcast Rain W 20/0 (23/0) 22(71) 83 1015 / 29.97
 12:55 Overcast Rain W 19/0 (22/0) 22(72) 79 1015 / 29.97
 11:55 Mostly Cloudy  W 18/0 (21/0) 22(72) 78 1016 / 30.00
 11:23 Overcast Showers W 20/0 (23/0) 22(72) 77 1017 / 30.02
 10:55 Mostly Cloudy Showers W 18/0 (21/0) 22(72) 77 1017 / 30.03
 10:44 Overcast Showers W 17/0 (20/0) 22(71) 77 1017 / 30.03
 10:30 Overcast Showers W 21/0 (24/0) 22(71) 77 1017 / 30.03
 10:05 Overcast Showers W 18/0 (21/0) 22(71) 77 1017 / 30.04
 09:55 Overcast Showers W 18/0 (21/0) 21(71) 78 1017 / 30.03
 09:32 Overcast Showers W 17/0 (20/0) 22(71) 77 1017 / 30.03
 09:07 Overcast Showers W 16/0 (18/0) 22(71) 75 1017 / 30.03
 08:55 Mostly Cloudy  W 17/0 (20/0) 21(71) 77 1017 / 30.02
 07:55 Overcast  W 16/0 (18/0) 21(70) 75 1017 / 30.02
 07:39 Overcast  W 15/0 (17/0) 21(70) 75 1017 / 30.02
 06:55 Mostly Cloudy  W 16/0 (18/0) 21(69) 75 1017 / 30.02
 05:55 Mostly Cloudy  W 15/0 (17/0) 21(69) 73 1016 / 30.01
 04:55 Overcast  W 14/0 (16/0) 20(69) 74 1017 / 30.02
 03:55 Mostly Cloudy  W 14/0 (16/0) 20(69) 73 1017 / 30.02
 02:55 Overcast Showers W 13/0 (15/0) 20(68) 73 1017 / 30.03
 02:31 Overcast Showers W 16/0 (18/0) 20(68) 73 1017 / 30.03
 01:55 Overcast Showers WSW 13/0 (15/0) 20(68) 67 1017 / 30.04
 00:55 Overcast Showers WSW 13/0 (15/0) 20(67) 65 1018 / 30.05
 23:55 Overcast  WSW 11/0 (13/0) 19(67) 63 1018 / 30.06
 22:55 Overcast  WSW 12/0 (14/0) 19(66) 61 1018 / 30.06
 21:55 Mostly Cloudy  WSW 10/0 (12/0) 18(65) 61 1019 / 30.08
 20:55 Mostly Cloudy  WSW 6/0 (7/0) 18(64) 61 1019 / 30.09
 19:55 Overcast  WSW 6/0 (7/0) 18(64) 61 1020 / 30.11
 18:55 Mostly Cloudy  SW 5/0 (6/0) 18(64) 60 1019 / 30.10
 17:55 Mostly Cloudy  Calm 18(64) 63 1019 / 30.10
 16:55 Mostly Cloudy  Calm 18(65) 57 1019 / 30.09
 15:55 Partly Cloudy  VRB 2/0 (2/0) 19(66) 55 1018 / 30.07
 14:55 Few Clouds  N 5/0 (6/0) 19(66) 55 1018 / 30.07
 13:55 Few Clouds  NNW 7/0 (8/0) 19(67) 53 1018 / 30.06
 12:55 Partly Cloudy  N 10/0 (12/0) 19(65) 57 1019 / 30.08
 11:55 Few Clouds  NNE 8/0 (9/0) 20(67) 54 1019 / 30.10
 10:55 Few Clouds  NNE 11/0 (13/0) 19(66) 55 1020 / 30.12
 09:55 Partly Cloudy  N 10/0 (12/0) 19(66) 52 1020 / 30.13
 08:55 Mostly Cloudy  N 10/0 (12/0) 18(65) 56 1020 / 30.11
 07:55 Mostly Cloudy  N 16/0 (18/0) 17(63) 62 1019 / 30.10
 06:55 Mostly Cloudy  N 10/0 (12/0) 18(64) 57 1019 / 30.09
 05:55 Mostly Cloudy Showers N 12/0 (14/0) 18(64) 53 1018 / 30.07
 04:55 Overcast  N 13/0 (15/0) 18(64) 54 1018 / 30.07
 03:55 Overcast Showers N 12/0 (14/0) 18(64) 55 1018 / 30.06
 02:55 Overcast  N 13/0 (15/0) 18(64) 55 1018 / 30.06
 01:55 Overcast  N 14/0 (16/0) 18(64) 54 1018 / 30.06
 00:55 Overcast Showers N 13/0 (15/0) 18(64) 54 1018 / 30.06
 23:55 Mostly Cloudy Showers NNW 13/0 (15/0) 18(64) 56 1018 / 30.07
 22:55 Mostly Cloudy Showers N 14/25 (16/29) 18(64) 55 1018 / 30.07
 21:55 Mostly Cloudy Showers NW 13/0 (15/0) 17(62) 69 1018 / 30.07
 21:17 Mostly Cloudy Showers NW 13/0 (15/0) 17(63) 64 1018 / 30.07
 20:55 Mostly Cloudy Showers N 15/0 (17/0) 18(64) 59 1018 / 30.06
 19:55 Mostly Cloudy Showers NNW 16/0 (18/0) 17(63) 64 1018 / 30.05
 19:40 Mostly Cloudy Showers NW 20/0 (23/0) 17(62) 70 1018 / 30.05
 18:55 Mostly Cloudy Showers NNW 15/0 (17/0) 18(64) 62 1017 / 30.03
 17:55 Mostly Cloudy Showers NNW 16/0 (18/0) 18(65) 60 1017 / 30.03
 16:55 Mostly Cloudy Showers N 15/0 (17/0) 18(64) 58 1016 / 30.01
 15:55 Mostly Cloudy Showers NNW 16/0 (18/0) 19(66) 56 1016 / 29.99
 14:55 Mostly Cloudy  NNW 17/0 (20/0) 19(67) 54 1016 / 29.99
 13:55 Mostly Cloudy  NNW 17/0 (20/0) 20(68) 58 1015 / 29.98
 12:55 Mostly Cloudy  NNW 18/0 (21/0) 20(67) 54 1015 / 29.98
 11:55 Mostly Cloudy Showers NNW 17/0 (20/0) 19(66) 58 1016 / 29.99
Observations from our AWOS sites are available here (password and username are both 'guest').